Time;durP1;ratioP1;P1;durP2;ratioP2;P2;SDS_P1;SDS_P2;PMS_P1;PMS_P2;Temp;Humidity;BMP_temperature;BMP_pressure;BME280_temperature;BME280_humidity;BME280_pressure;Samples;Min_cycle;Max_cycle;Signal;HPM_P1;HPM_P2
2022/08/09 00:00:00;;;;;;;20.15;10.57;;;;;;;16.24;77.74;102590.13;5013309;28;20026;-60
2022/08/09 00:02:25;;;;;;;17.58;9.90;;;;;;;16.28;77.80;102602.34;5013518;28;20140;-58
2022/08/09 00:04:50;;;;;;;16.98;9.60;;;;;;;16.32;77.14;102592.22;5013381;28;20113;-58
2022/08/09 00:07:16;;;;;;;17.42;9.63;;;;;;;16.25;77.84;102589.81;5013578;28;20040;-59
2022/08/09 00:09:41;;;;;;;17.20;9.95;;;;;;;16.27;77.80;102595.91;5013189;28;20018;-59
2022/08/09 00:12:08;;;;;;;18.52;10.15;;;;;;;16.25;77.87;102592.59;5012976;28;20029;-59
2022/08/09 00:14:34;;;;;;;19.27;10.05;;;;;;;16.15;78.76;102585.22;5013438;28;20037;-59
2022/08/09 00:16:59;;;;;;;17.23;9.85;;;;;;;16.09;78.94;102593.97;5012848;28;20116;-59
2022/08/09 00:19:24;;;;;;;16.02;9.65;;;;;;;16.07;78.85;102588.69;5012819;28;20126;-59
2022/08/09 00:21:50;;;;;;;18.77;11.48;;;;;;;15.99;79.42;102586.56;5013021;28;20517;-58
2022/08/09 00:24:15;;;;;;;19.48;10.85;;;;;;;15.91;79.71;102582.50;5012733;28;20422;-61
2022/08/09 00:26:41;;;;;;;18.30;10.20;;;;;;;15.90;79.59;102580.81;5012876;28;20037;-59
2022/08/09 00:29:06;;;;;;;16.98;10.02;;;;;;;15.91;79.56;102582.50;5013197;28;20022;-59
2022/08/09 00:31:32;;;;;;;17.45;10.23;;;;;;;15.84;80.18;102582.84;5012852;28;20022;-60
2022/08/09 00:33:57;;;;;;;20.55;10.50;;;;;;;15.83;79.83;102589.53;5012444;28;20649;-59
2022/08/09 00:36:23;;;;;;;17.52;10.35;;;;;;;15.81;80.52;102580.66;5012926;28;20072;-59
2022/08/09 00:38:49;;;;;;;20.42;9.93;;;;;;;15.83;79.64;102585.91;5012527;28;20182;-59
2022/08/09 00:41:14;;;;;;;18.60;10.15;;;;;;;15.83;79.15;102586.75;5012426;28;20030;-59
2022/08/09 00:43:41;;;;;;;19.05;10.55;;;;;;;15.75;80.33;102582.69;5012617;28;20026;-59
2022/08/09 00:46:08;;;;;;;16.25;9.85;;;;;;;15.69;80.72;102577.44;5012741;28;20065;-58
2022/08/09 00:48:34;;;;;;;17.90;10.02;;;;;;;15.70;80.60;102582.72;5011851;28;20377;-59
2022/08/09 00:51:02;;;;;;;18.15;10.30;;;;;;;15.66;80.88;102590.03;5012393;28;20053;-59
2022/08/09 00:53:28;;;;;;;17.45;10.45;;;;;;;15.62;81.35;102582.56;5012394;28;20022;-60
2022/08/09 00:55:53;;;;;;;18.42;10.50;;;;;;;15.54;81.89;102581.25;5012371;28;20030;-60
2022/08/09 00:58:19;;;;;;;18.85;10.40;;;;;;;15.55;81.41;102589.31;5012325;28;20121;-59
2022/08/09 01:00:44;;;;;;;19.73;10.60;;;;;;;15.52;81.79;102586.31;4994159;28;20129;-59
2022/08/09 01:03:15;;;;;;;19.48;10.60;;;;;;;15.37;82.10;102574.22;5011798;28;20121;-59
2022/08/09 01:06:05;;;;;;;18.60;10.65;;;;;;;15.48;81.68;102586.06;5012152;28;20049;-59
2022/08/09 01:08:45;;;;;;;19.27;10.35;;;;;;;15.46;81.78;102593.09;5011747;28;20034;-60
2022/08/09 01:11:22;;;;;;;16.80;9.85;;;;;;;15.38;82.23;102583.41;5011987;28;20304;-60
2022/08/09 01:14:01;;;;;;;17.73;10.48;;;;;;;15.40;82.17;102590.34;5012116;28;20025;-60
2022/08/09 01:16:38;;;;;;;18.95;10.57;;;;;;;15.31;82.49;102580.97;5011927;28;20116;-60
2022/08/09 01:19:46;;;;;;;20.33;11.40;;;;;;;15.31;82.05;102582.94;5011946;28;20034;-59
2022/08/09 01:22:30;;;;;;;18.52;10.57;;;;;;;15.35;81.79;102592.38;5011131;28;20041;-59
2022/08/09 01:25:04;;;;;;;;;;;;;;;15.41;79.84;102596.75;5012212;28;20030;-59
2022/08/09 01:27:32;;;;;;;18.58;10.32;;;;;;;15.42;81.85;102592.84;5011959;28;19957;-59
2022/08/09 01:30:01;;;;;;;18.27;10.18;;;;;;;15.32;81.73;102582.63;5011692;28;20100;-59
2022/08/09 01:32:31;;;;;;;18.92;10.32;;;;;;;15.42;81.67;102598.44;5011901;28;20458;-59
2022/08/09 01:35:00;;;;;;;18.60;10.85;;;;;;;15.29;82.41;102569.28;5011867;28;20041;-58
2022/08/09 01:37:26;;;;;;;19.27;10.63;;;;;;;15.30;82.29;102584.91;5011584;28;20088;-58
2022/08/09 01:39:53;;;;;;;16.80;10.32;;;;;;;15.26;82.40;102587.44;5011702;28;20037;-59
2022/08/09 01:42:20;;;;;;;18.95;11.38;;;;;;;15.21;82.89;102583.88;5011605;28;20077;-59
2022/08/09 01:44:47;;;;;;;18.77;11.50;;;;;;;15.13;83.30;102590.94;5011669;28;20631;-59
2022/08/09 01:47:14;;;;;;;20.35;11.57;;;;;;;15.07;83.58;102587.38;5011843;28;20026;-59
2022/08/09 01:49:41;;;;;;;17.92;11.35;;;;;;;15.00;83.29;102575.75;5012405;28;20062;-59
2022/08/09 01:52:11;;;;;;;21.50;11.32;;;;;;;14.97;83.55;102579.91;5011621;28;20025;-59
2022/08/09 01:54:49;;;;;;;18.88;11.82;;;;;;;14.96;83.54;102586.66;5011708;28;20037;-59
2022/08/09 01:57:26;;;;;;;19.15;11.57;;;;;;;14.90;83.76;102585.00;5011766;28;20041;-60
2022/08/09 01:59:54;;;;;;;20.27;11.60;;;;;;;14.91;83.81;102577.50;5011837;28;20080;-60
2022/08/09 02:02:24;;;;;;;20.98;11.60;;;;;;;14.88;83.90;102587.25;5015253;28;20405;-60
2022/08/09 02:04:50;;;;;;;19.92;11.90;;;;;;;14.84;84.10;102602.06;5016086;28;20076;-60
2022/08/09 02:07:18;;;;;;;19.23;11.93;;;;;;;14.72;84.15;102583.81;5015720;28;20029;-59
2022/08/09 02:09:58;;;;;;;19.42;12.30;;;;;;;14.71;84.36;102587.72;5015130;28;20033;-60
2022/08/09 02:12:24;;;;;;;20.67;12.38;;;;;;;14.70;85.16;102602.75;5015108;28;20415;-59
2022/08/09 02:14:53;;;;;;;20.58;12.05;;;;;;;14.70;84.96;102599.97;5015034;28;20033;-59
2022/08/09 02:17:23;;;;;;;20.60;12.43;;;;;;;14.60;84.86;102592.47;5015213;28;20127;-58
2022/08/09 02:19:48;;;;;;;21.65;12.65;;;;;;;14.60;84.81;102595.25;5015373;28;20025;-59
2022/08/09 02:22:24;;;;;;;18.67;12.13;;;;;;;14.51;86.13;102597.00;5015307;28;20064;-59
2022/08/09 02:24:52;;;;;;;19.52;12.32;;;;;;;14.49;85.93;102591.75;5015168;28;20042;-59
2022/08/09 02:27:20;;;;;;;19.20;12.75;;;;;;;14.54;85.47;102590.88;5014770;28;20481;-59
2022/08/09 02:29:50;;;;;;;21.35;12.65;;;;;;;14.55;85.67;102589.75;4997197;28;20300;-58
2022/08/09 02:32:18;;;;;;;20.63;13.45;;;;;;;14.51;85.62;102588.66;5014531;28;20338;-59
2022/08/09 02:34:47;;;;;;;21.75;12.63;;;;;;;14.50;86.01;102587.00;5014860;28;20041;-59
2022/08/09 02:37:15;;;;;;;21.02;13.07;;;;;;;14.46;86.63;102597.06;5014522;28;20117;-60
2022/08/09 02:39:45;;;;;;;19.73;12.27;;;;;;;14.37;86.42;102588.47;5014893;28;20026;-58
2022/08/09 02:42:17;;;;;;;20.60;12.82;;;;;;;14.45;86.60;102593.44;5014851;28;20034;-59
2022/08/09 02:44:47;;;;;;;20.05;13.23;;;;;;;14.34;86.49;102575.16;4997514;28;20039;-58
2022/08/09 02:47:15;;;;;;;19.83;12.88;;;;;;;14.32;87.27;102594.91;5015092;28;20121;-58
2022/08/09 02:49:51;;;;;;;19.80;13.75;;;;;;;14.33;87.25;102581.84;5015103;28;20489;-59
2022/08/09 02:52:17;;;;;;;20.92;13.60;;;;;;;14.26;87.42;102584.13;5014840;28;20163;-59
2022/08/09 02:54:44;;;;;;;20.05;13.25;;;;;;;14.22;87.99;102583.03;5014811;28;20427;-59
2022/08/09 02:57:10;;;;;;;20.98;14.02;;;;;;;14.15;88.42;102575.00;5014859;28;20033;-59
2022/08/09 02:59:38;;;;;;;21.38;13.40;;;;;;;14.14;88.31;102574.19;5014955;28;20030;-59
2022/08/09 03:02:06;;;;;;;20.67;13.38;;;;;;;14.10;88.52;102570.28;5014316;28;20029;-59
2022/08/09 03:04:32;;;;;;;21.90;13.43;;;;;;;14.09;88.99;102578.94;5014324;28;20022;-59
2022/08/09 03:07:01;;;;;;;20.65;13.18;;;;;;;14.13;88.87;102582.78;5014169;28;20419;-60
2022/08/09 03:09:27;;;;;;;20.80;13.35;;;;;;;14.12;88.95;102587.53;5014353;28;20034;-59
2022/08/09 03:11:53;;;;;;;21.60;13.48;;;;;;;14.09;89.01;102584.50;5014341;28;20033;-59
2022/08/09 03:14:20;;;;;;;19.85;12.80;;;;;;;14.14;88.51;102584.47;5014530;28;20034;-59
2022/08/09 03:16:46;;;;;;;19.40;12.52;;;;;;;14.11;88.44;102585.06;5014259;28;20037;-60
2022/08/09 03:19:14;;;;;;;22.05;13.00;;;;;;;14.11;89.04;102574.75;5014168;28;20434;-59
2022/08/09 03:21:41;;;;;;;20.45;13.00;;;;;;;14.08;89.16;102583.66;5014056;28;20118;-59
2022/08/09 03:24:06;;;;;;;20.70;13.50;;;;;;;14.05;89.48;102578.69;5014161;28;20030;-59
2022/08/09 03:26:32;;;;;;;21.73;13.60;;;;;;;14.01;89.35;102580.38;5013874;28;20550;-60
2022/08/09 03:28:58;;;;;;;19.90;13.18;;;;;;;14.01;89.41;102581.22;5013939;28;20465;-59
2022/08/09 03:31:25;;;;;;;20.10;12.73;;;;;;;14.06;89.77;102585.94;5013732;28;20064;-60
2022/08/09 03:33:52;;;;;;;20.05;13.25;;;;;;;14.02;89.71;102584.81;5013932;28;20030;-59
2022/08/09 03:36:17;;;;;;;20.92;13.10;;;;;;;14.02;89.64;102584.81;5013661;28;20033;-59
2022/08/09 03:38:43;;;;;;;21.20;13.73;;;;;;;14.00;89.51;102587.06;5013967;28;20056;-59
2022/08/09 03:41:11;;;;;;;22.15;13.27;;;;;;;13.94;90.43;102591.00;5013918;28;20029;-60
2022/08/09 03:43:36;;;;;;;20.38;12.98;;;;;;;13.98;89.68;102594.88;5014125;28;20022;-60
2022/08/09 03:46:02;;;;;;;21.38;13.60;;;;;;;13.92;89.98;102594.06;5014205;28;20026;-59
2022/08/09 03:48:29;;;;;;;20.77;13.20;;;;;;;13.89;89.63;102589.88;5013783;28;20517;-59
2022/08/09 03:50:55;;;;;;;21.38;13.98;;;;;;;13.82;90.53;102594.94;5013824;28;20120;-60
2022/08/09 03:53:21;;;;;;;20.77;13.60;;;;;;;13.73;90.80;102591.09;5013942;28;20429;-60
2022/08/09 03:55:47;;;;;;;22.48;14.30;;;;;;;13.63;91.10;102585.56;4995557;28;20026;-59
2022/08/09 03:58:13;;;;;;;22.45;14.38;;;;;;;13.60;91.45;102584.19;5013812;28;20030;-59
2022/08/09 04:00:38;;;;;;;21.98;13.80;;;;;;;13.65;91.17;102591.69;5013652;28;20104;-59
2022/08/09 04:03:05;;;;;;;22.63;13.98;;;;;;;13.64;91.49;102602.00;5013704;28;20156;-58
2022/08/09 04:05:31;;;;;;;22.85;13.73;;;;;;;13.61;91.81;102588.63;5013759;28;20036;-59
2022/08/09 04:07:56;;;;;;;22.63;13.80;;;;;;;13.56;91.72;102585.88;5013600;28;20112;-60
2022/08/09 04:10:22;;;;;;;22.83;14.35;;;;;;;13.57;91.77;102587.53;4995918;28;20030;-60
2022/08/09 04:12:50;;;;;;;23.27;14.13;;;;;;;13.46;92.00;102583.97;5013586;28;20091;-59
2022/08/09 04:15:16;;;;;;;22.88;13.82;;;;;;;13.55;92.19;102596.16;5013253;28;20029;-59
2022/08/09 04:17:43;;;;;;;21.38;14.60;;;;;;;13.54;92.12;102583.38;5013061;28;20034;-59
2022/08/09 04:20:10;;;;;;;20.98;13.48;;;;;;;13.58;91.72;102589.19;5013167;28;20374;-59
2022/08/09 04:22:36;;;;;;;22.48;14.60;;;;;;;13.57;92.10;102591.16;5012557;28;20026;-59
2022/08/09 04:25:02;;;;;;;21.65;13.68;;;;;;;13.55;92.25;102592.56;4994785;28;20025;-59
2022/08/09 04:27:28;;;;;;;22.83;14.68;;;;;;;13.57;91.88;102599.50;5012833;28;20034;-59
2022/08/09 04:29:53;;;;;;;22.90;15.07;;;;;;;13.62;92.17;102595.03;5012814;28;20065;-59
2022/08/09 04:32:19;;;;;;;23.70;14.80;;;;;;;13.62;92.37;102597.81;5012846;28;20345;-59
2022/08/09 04:34:44;;;;;;;22.05;15.30;;;;;;;13.56;92.49;102606.19;5012703;28;20022;-58
2022/08/09 04:37:10;;;;;;;22.70;15.13;;;;;;;13.55;92.90;102606.47;5012575;28;20029;-58
2022/08/09 04:39:35;;;;;;;22.35;14.75;;;;;;;13.51;92.52;102608.97;5012819;28;20022;-59
2022/08/09 04:42:01;;;;;;;22.67;14.50;;;;;;;13.51;92.71;102608.13;5012537;28;20469;-58
2022/08/09 04:44:26;;;;;;;21.98;14.38;;;;;;;13.52;93.09;102605.06;5012410;28;20033;-59
2022/08/09 04:46:51;;;;;;;22.60;15.35;;;;;;;13.55;93.80;102612.03;5012214;28;20034;-59
2022/08/09 04:49:17;;;;;;;22.58;14.98;;;;;;;13.52;93.21;102604.25;5012522;28;20085;-59
2022/08/09 04:51:42;;;;;;;22.77;14.50;;;;;;;13.56;93.52;102610.88;5012277;28;20080;-59
2022/08/09 04:54:07;;;;;;;23.02;14.35;;;;;;;13.61;93.52;102616.44;5012729;28;20075;-59
2022/08/09 04:56:33;;;;;;;21.85;13.68;;;;;;;13.62;93.56;102622.81;4994376;28;20080;-59
2022/08/09 04:58:58;;;;;;;22.30;14.52;;;;;;;13.68;92.97;102618.94;5012364;28;20034;-59
2022/08/09 05:01:24;;;;;;;22.27;14.63;;;;;;;13.67;93.44;102620.88;5012539;28;20116;-60
2022/08/09 05:03:49;;;;;;;22.10;13.15;;;;;;;13.72;93.15;102622.78;5012425;28;20112;-59
2022/08/09 05:06:14;;;;;;;22.23;14.23;;;;;;;13.71;93.03;102624.75;4994413;28;20374;-58
2022/08/09 05:08:40;;;;;;;23.98;15.13;;;;;;;13.76;93.26;102629.47;5012349;28;20034;-59
2022/08/09 05:11:06;;;;;;;22.48;15.18;;;;;;;13.78;93.42;102626.38;4994742;28;20466;-60
2022/08/09 05:13:31;;;;;;;22.88;14.60;;;;;;;13.82;93.54;102619.16;5012609;28;20052;-59
2022/08/09 05:15:56;;;;;;;24.98;15.15;;;;;;;13.89;93.26;102630.78;5011987;28;20509;-59
2022/08/09 05:18:22;;;;;;;21.75;14.25;;;;;;;13.92;92.99;102630.25;4994290;28;20037;-59
2022/08/09 05:20:47;;;;;;;22.55;15.05;;;;;;;13.92;94.03;102629.38;5012149;28;20032;-59
2022/08/09 05:23:13;;;;;;;23.05;15.10;;;;;;;13.94;93.87;102638.28;5012111;28;20385;-59
2022/08/09 05:25:38;;;;;;;23.58;14.75;;;;;;;13.97;93.44;102635.75;5011682;28;20056;-59
2022/08/09 05:28:04;;;;;;;23.42;15.20;;;;;;;14.01;94.59;102627.69;5011903;28;20049;-59
2022/08/09 05:30:29;;;;;;;23.20;14.75;;;;;;;14.07;93.89;102629.34;5011989;28;20117;-59
2022/08/09 05:32:54;;;;;;;23.15;14.95;;;;;;;14.13;93.38;102625.38;5011976;28;20485;-59
2022/08/09 05:35:20;;;;;;;22.75;15.55;;;;;;;14.21;93.12;102632.31;5011893;28;20143;-59
2022/08/09 05:37:47;;;;;;;23.92;15.25;;;;;;;14.24;93.32;102637.28;5011618;28;20026;-59
2022/08/09 05:40:13;;;;;;;24.17;15.55;;;;;;;14.33;93.24;102635.56;5011748;28;20037;-59
2022/08/09 05:42:39;;;;;;;24.80;15.32;;;;;;;14.39;93.22;102647.50;5011985;28;20053;-59
2022/08/09 05:45:05;;;;;;;23.33;15.98;;;;;;;14.46;92.99;102638.84;5010637;28;20022;-60
2022/08/09 05:47:31;;;;;;;23.95;15.05;;;;;;;14.54;92.61;102645.75;5011556;28;20132;-59
2022/08/09 05:49:56;;;;;;;23.83;15.77;;;;;;;14.59;92.63;102643.75;4994211;28;20046;-59
2022/08/09 05:52:22;;;;;;;22.50;15.38;;;;;;;14.69;92.68;102644.84;5011957;28;20461;-59
2022/08/09 05:54:47;;;;;;;23.52;15.60;;;;;;;14.74;92.12;102648.38;5012259;28;20060;-59
2022/08/09 05:57:13;;;;;;;23.25;15.85;;;;;;;14.80;92.84;102641.69;5011584;28;20022;-59
2022/08/09 05:59:38;;;;;;;24.02;15.98;;;;;;;14.86;92.24;102649.97;5011408;28;20033;-59
2022/08/09 06:02:03;;;;;;;22.90;15.50;;;;;;;14.93;92.74;102644.88;5011524;28;20362;-60
2022/08/09 06:04:29;;;;;;;25.02;16.08;;;;;;;14.97;92.52;102646.81;5011802;28;20053;-59
2022/08/09 06:06:54;;;;;;;22.95;15.60;;;;;;;15.08;92.30;102652.28;5011592;28;20104;-60
2022/08/09 06:09:20;;;;;;;24.35;15.80;;;;;;;15.17;92.22;102655.28;5011679;28;20160;-59
2022/08/09 06:11:45;;;;;;;24.83;16.58;;;;;;;15.25;91.36;102654.66;5011551;28;20373;-59
2022/08/09 06:14:11;;;;;;;23.20;15.30;;;;;;;15.39;91.29;102663.16;5011875;28;20596;-59
2022/08/09 06:16:36;;;;;;;23.17;14.90;;;;;;;15.44;90.23;102661.13;5011465;28;20037;-59
2022/08/09 06:19:02;;;;;;;23.38;15.68;;;;;;;15.52;90.58;102661.63;5011347;28;20018;-60
2022/08/09 06:21:27;;;;;;;24.42;15.00;;;;;;;15.63;90.28;102656.78;5011559;28;20026;-60
2022/08/09 06:23:54;;;;;;;22.17;15.30;;;;;;;15.70;89.30;102665.59;5011316;28;20034;-59
2022/08/09 06:26:22;;;;;;;23.10;14.73;;;;;;;15.73;89.21;102668.63;5011619;28;20490;-58
2022/08/09 06:28:52;;;;;;;24.08;15.63;;;;;;;15.85;89.05;102670.22;5011528;28;20030;-59
2022/08/09 06:31:17;;;;;;;22.65;15.50;;;;;;;15.93;88.56;102669.53;5011607;28;20114;-59
2022/08/09 06:33:43;;;;;;;23.08;15.32;;;;;;;16.01;88.37;102674.47;5011522;28;20113;-58
2022/08/09 06:36:09;;;;;;;23.55;15.13;;;;;;;16.08;88.42;102664.88;5011571;28;20033;-59
2022/08/09 06:38:34;;;;;;;22.17;14.65;;;;;;;16.20;87.70;102673.66;5011574;28;20084;-59
2022/08/09 06:41:00;;;;;;;23.33;15.05;;;;;;;16.28;87.75;102672.16;5011302;28;20034;-59
2022/08/09 06:43:25;;;;;;;22.40;15.30;;;;;;;16.34;86.80;102668.16;5011282;28;20042;-59
2022/08/09 06:45:50;;;;;;;22.92;15.10;;;;;;;16.46;86.48;102670.50;5011305;28;20112;-60
2022/08/09 06:48:15;;;;;;;21.10;14.40;;;;;;;16.50;85.71;102669.59;5014191;28;20046;-59
2022/08/09 06:50:41;;;;;;;22.60;14.32;;;;;;;16.51;84.80;102662.88;5014975;28;20026;-59
2022/08/09 06:53:06;;;;;;;24.00;14.10;;;;;;;16.66;85.30;102670.19;5014334;28;20034;-58
2022/08/09 06:55:32;;;;;;;22.27;15.07;;;;;;;16.71;84.23;102671.25;5014499;28;20022;-60
2022/08/09 06:57:58;;;;;;;23.85;14.80;;;;;;;16.84;84.65;102667.66;5014546;28;20164;-60
2022/08/09 07:00:24;;;;;;;21.35;14.35;;;;;;;16.93;83.02;102673.41;5014523;28;20025;-59
2022/08/09 07:02:50;;;;;;;21.95;14.13;;;;;;;17.02;82.78;102679.16;5014628;28;20370;-59
2022/08/09 07:05:15;;;;;;;23.08;14.05;;;;;;;17.11;82.58;102680.09;5014073;28;20116;-59
2022/08/09 07:07:41;;;;;;;22.02;14.00;;;;;;;17.28;82.50;102680.38;5014229;28;20033;-59
2022/08/09 07:10:06;;;;;;;20.50;13.07;;;;;;;17.38;82.19;102682.16;5014104;28;20034;-59
2022/08/09 07:12:31;;;;;;;21.85;14.15;;;;;;;17.52;81.50;102684.97;5014245;28;20385;-60
2022/08/09 07:14:57;;;;;;;20.55;13.65;;;;;;;17.65;80.06;102682.50;5014237;28;20061;-59
2022/08/09 07:17:22;;;;;;;21.30;13.40;;;;;;;17.74;79.27;102689.84;5014445;28;20029;-59
2022/08/09 07:19:49;;;;;;;22.00;13.75;;;;;;;17.81;79.08;102691.41;5014291;28;20383;-60
2022/08/09 07:22:14;;;;;;;22.50;13.23;;;;;;;17.85;78.40;102682.09;5013641;28;20434;-59
2022/08/09 07:24:40;;;;;;;21.17;13.52;;;;;;;17.96;78.59;102674.34;5014139;28;20038;-60
2022/08/09 07:27:07;;;;;;;20.67;13.02;;;;;;;17.96;77.99;102674.34;5014150;28;20026;-61
2022/08/09 07:29:33;;;;;;;21.58;12.75;;;;;;;18.05;77.28;102675.25;5014190;28;20156;-59
2022/08/09 07:32:00;;;;;;;21.15;12.75;;;;;;;18.17;76.78;102677.50;5013999;28;20156;-60
2022/08/09 07:34:25;;;;;;;23.38;12.80;;;;;;;18.25;75.59;102689.97;5014136;28;20101;-59
2022/08/09 07:36:50;;;;;;;20.55;12.73;;;;;;;18.28;75.34;102682.91;5013808;28;20124;-60
2022/08/09 07:39:16;;;;;;;21.15;12.63;;;;;;;18.36;75.54;102687.75;5013776;28;20025;-59
2022/08/09 07:41:42;;;;;;;19.58;12.75;;;;;;;18.44;75.24;102681.41;5013857;28;20471;-59
2022/08/09 07:44:07;;;;;;;20.42;12.20;;;;;;;18.57;74.76;102682.50;5014056;28;20021;-60
2022/08/09 07:46:32;;;;;;;20.55;12.25;;;;;;;18.71;74.65;102683.28;5014256;28;20042;-60
2022/08/09 07:48:58;;;;;;;21.67;12.73;;;;;;;18.80;73.76;102686.13;5013516;28;20125;-59
2022/08/09 07:51:23;;;;;;;20.60;12.20;;;;;;;18.88;73.48;102678.94;5013672;28;20030;-59
2022/08/09 07:53:51;;;;;;;22.73;12.00;;;;;;;18.89;71.79;102674.19;5012343;28;20030;-60
2022/08/09 07:56:16;;;;;;;21.48;12.38;;;;;;;18.99;71.79;102686.00;5013561;28;20026;-60
2022/08/09 07:58:41;;;;;;;19.42;12.05;;;;;;;19.06;71.70;102690.31;5012198;28;20446;-59
2022/08/09 08:01:07;;;;;;;20.33;11.90;;;;;;;19.17;71.68;102688.91;5012166;28;20041;-60
2022/08/09 08:03:32;;;;;;;20.27;12.25;;;;;;;19.26;70.28;102694.59;5013458;28;20022;-60
2022/08/09 08:05:58;;;;;;;20.85;11.25;;;;;;;19.31;70.82;102692.47;5013586;28;20030;-60
2022/08/09 08:08:23;;;;;;;20.25;11.27;;;;;;;19.41;70.57;102690.53;5013302;28;20120;-60
2022/08/09 08:10:49;;;;;;;19.13;10.88;;;;;;;19.49;69.08;102684.97;5013659;28;20029;-60
2022/08/09 08:13:14;;;;;;;17.92;10.77;;;;;;;19.66;69.07;102697.41;5012902;28;20548;-59
2022/08/09 08:15:40;;;;;;;19.58;11.50;;;;;;;19.71;67.75;102693.63;5012667;28;20030;-59
2022/08/09 08:18:05;;;;;;;19.20;10.98;;;;;;;19.84;67.02;102703.13;5013001;28;20026;-60
2022/08/09 08:20:30;;;;;;;18.55;10.43;;;;;;;19.85;66.64;102676.66;5011324;28;20124;-60
2022/08/09 08:22:57;;;;;;;18.80;10.55;;;;;;;19.95;67.12;102690.44;5012533;28;20026;-60
2022/08/09 08:25:22;;;;;;;21.20;11.45;;;;;;;19.94;67.33;102689.63;5012383;28;20034;-60
2022/08/09 08:27:47;;;;;;;18.77;11.05;;;;;;;20.07;66.62;102685.03;5012457;28;20175;-60
2022/08/09 08:30:13;;;;;;;19.20;10.80;;;;;;;20.15;66.30;102674.97;5012415;28;20323;-59
2022/08/09 08:32:39;;;;;;;20.35;10.60;;;;;;;20.32;66.17;102676.97;5012889;28;20026;-60
2022/08/09 08:35:05;;;;;;;17.52;10.10;;;;;;;20.25;65.06;102682.25;5012737;28;20057;-59
2022/08/09 08:37:31;;;;;;;17.15;9.80;;;;;;;20.29;65.21;102674.81;5012394;28;20034;-59
2022/08/09 08:39:56;;;;;;;17.70;10.40;;;;;;;20.34;65.93;102677.47;5012450;28;20041;-59
2022/08/09 08:42:22;;;;;;;18.23;10.20;;;;;;;20.38;64.61;102678.47;5012215;28;20080;-59
2022/08/09 08:44:58;;;;;;;18.15;10.43;;;;;;;20.44;64.26;102678.31;5012711;28;20034;-59
2022/08/09 08:47:25;;;;;;;20.70;11.65;;;;;;;20.58;63.68;102685.41;5012231;28;20033;-59
2022/08/09 08:49:51;;;;;;;18.33;10.20;;;;;;;20.65;62.21;102693.38;5013351;28;20021;-58
2022/08/09 08:52:18;;;;;;;17.65;9.95;;;;;;;20.58;62.46;102690.22;5012356;28;20104;-59
2022/08/09 08:54:44;;;;;;;17.45;9.40;;;;;;;20.68;62.65;102689.91;5012273;28;20029;-59
2022/08/09 08:57:09;;;;;;;19.25;9.82;;;;;;;20.88;60.94;102688.41;5012471;28;20022;-58
2022/08/09 08:59:35;;;;;;;17.05;9.65;;;;;;;20.88;60.05;102696.00;5012513;28;20132;-59
2022/08/09 09:02:03;;;;;;;17.75;9.60;;;;;;;20.98;60.68;102698.50;5012275;28;20041;-60
2022/08/09 09:04:29;;;;;;;18.75;10.10;;;;;;;21.07;61.16;102700.47;5012053;28;20025;-60
2022/08/09 09:07:01;;;;;;;17.42;9.80;;;;;;;21.03;59.85;102694.66;5012373;28;20021;-59
2022/08/09 09:09:29;;;;;;;16.35;9.05;;;;;;;21.17;60.19;102689.69;5011976;28;20056;-59
2022/08/09 09:11:57;;;;;;;17.65;9.80;;;;;;;21.35;59.98;102703.72;5012207;28;20025;-60
2022/08/09 09:14:24;;;;;;;15.80;9.32;;;;;;;21.50;59.61;102708.78;5012191;28;20033;-59
2022/08/09 09:16:50;;;;;;;16.42;8.90;;;;;;;21.71;58.82;102696.81;5011946;28;20089;-59
2022/08/09 09:19:15;;;;;;;12.77;8.80;;;;;;;21.79;57.69;102704.41;5012335;28;20028;-60
2022/08/09 09:22:09;;;;;;;14.27;8.32;;;;;;;21.83;57.74;102703.72;5011993;28;20034;-58
2022/08/09 09:24:36;;;;;;;;;;;;;;;21.89;57.58;102719.28;5012524;28;20466;-60
2022/08/09 09:27:03;;;;;;;16.35;8.57;;;;;;;21.89;55.66;102708.00;5011948;28;19909;-60
2022/08/09 09:29:35;;;;;;;15.05;8.60;;;;;;;22.05;54.39;102711.91;5011769;28;20029;-59
2022/08/09 09:32:02;;;;;;;12.53;8.40;;;;;;;22.00;53.01;102706.47;5011613;28;20049;-59
2022/08/09 09:34:28;;;;;;;15.15;9.02;;;;;;;22.09;52.77;102712.88;5011434;28;20107;-59
2022/08/09 09:36:54;;;;;;;14.63;8.48;;;;;;;22.16;53.28;102708.69;5011708;28;20427;-59
2022/08/09 09:39:21;;;;;;;13.32;8.30;;;;;;;22.14;53.61;102697.75;5011775;28;20037;-60
2022/08/09 09:41:47;;;;;;;13.05;8.60;;;;;;;22.23;53.32;102700.53;5011755;28;20084;-59
2022/08/09 09:44:13;;;;;;;13.48;8.55;;;;;;;22.25;52.44;102703.81;5011864;28;20026;-59
2022/08/09 09:46:41;;;;;;;13.65;8.25;;;;;;;22.31;52.43;102684.69;5011971;28;20466;-59
2022/08/09 09:49:09;;;;;;;13.20;7.90;;;;;;;22.39;51.14;102697.91;5011523;28;20060;-59
2022/08/09 09:51:36;;;;;;;14.25;8.27;;;;;;;22.44;51.65;102700.56;5011869;28;20188;-59
2022/08/09 09:54:09;;;;;;;12.10;8.00;;;;;;;22.54;51.24;102694.53;5011274;28;20093;-59
2022/08/09 09:56:40;;;;;;;14.25;7.80;;;;;;;22.65;51.09;102688.47;5011378;28;20049;-59
2022/08/09 09:59:08;;;;;;;12.52;8.40;;;;;;;22.66;51.58;102690.13;5012127;28;20036;-59
2022/08/09 10:01:33;;;;;;;12.98;8.13;;;;;;;22.68;51.88;102691.41;5011510;28;20462;-60
2022/08/09 10:03:59;;;;;;;13.98;8.30;;;;;;;22.69;51.08;102690.25;5011315;28;20036;-59
2022/08/09 10:06:26;;;;;;;12.65;7.97;;;;;;;22.82;50.60;102701.56;5011848;28;20080;-59
2022/08/09 10:08:58;;;;;;;12.52;8.27;;;;;;;22.93;49.18;102697.16;5011447;28;20050;-58
2022/08/09 10:11:27;;;;;;;11.20;7.30;;;;;;;22.93;48.66;102694.34;5011500;28;20080;-59
2022/08/09 10:13:53;;;;;;;10.85;7.40;;;;;;;22.98;47.91;102696.94;5011584;28;20049;-59
2022/08/09 10:16:32;;;;;;;13.65;7.85;;;;;;;23.11;48.88;102708.25;5011468;28;20152;-60
2022/08/09 10:19:00;;;;;;;11.43;7.68;;;;;;;23.14;48.54;102696.28;5011644;28;20018;-59
2022/08/09 10:21:26;;;;;;;12.07;7.50;;;;;;;23.24;48.06;102693.06;5012998;28;20107;-60
2022/08/09 10:23:54;;;;;;;11.88;7.40;;;;;;;23.23;46.43;102685.75;5014895;28;20026;-59
2022/08/09 10:26:21;;;;;;;12.27;7.40;;;;;;;23.37;47.58;102688.25;5015095;28;20115;-60
2022/08/09 10:28:47;;;;;;;12.00;7.93;;;;;;;23.51;47.27;102685.09;5015055;28;20366;-61
2022/08/09 10:31:13;;;;;;;11.75;7.53;;;;;;;23.56;45.73;102690.53;5014957;28;20022;-59
2022/08/09 10:33:39;;;;;;;10.63;7.50;;;;;;;23.61;45.68;102681.00;5015362;28;20053;-59
2022/08/09 10:36:07;;;;;;;11.95;8.00;;;;;;;23.78;45.83;102686.41;5014539;28;20090;-59
2022/08/09 10:38:34;;;;;;;11.10;7.53;;;;;;;23.70;45.18;102680.88;5015223;28;20034;-59
2022/08/09 10:40:59;;;;;;;12.10;8.00;;;;;;;23.82;46.45;102672.41;5014959;28;20025;-59
2022/08/09 10:43:25;;;;;;;11.05;7.45;;;;;;;23.81;46.48;102673.59;5014976;28;20033;-59
2022/08/09 10:45:51;;;;;;;11.13;7.40;;;;;;;24.02;45.56;102678.31;5014407;28;20458;-59
2022/08/09 10:48:26;;;;;;;11.52;7.50;;;;;;;24.00;46.28;102661.69;5014518;28;20080;-59
2022/08/09 10:51:13;;;;;;;10.15;7.35;;;;;;;24.03;44.52;102666.63;5014460;28;20072;-59
2022/08/09 10:54:00;;;;;;;10.35;7.30;;;;;;;24.14;46.31;102661.31;5014727;28;20036;-59
2022/08/09 10:56:28;;;;;;;14.98;7.70;;;;;;;24.03;45.13;102668.66;5014621;28;20061;-60
2022/08/09 10:58:57;;;;;;;13.75;8.05;;;;;;;23.99;45.77;102655.22;5014048;28;20048;-60
2022/08/09 11:01:31;;;;;;;14.88;7.70;;;;;;;24.07;45.10;102669.56;5014055;28;20034;-60
2022/08/09 11:04:22;;;;;;;8.95;7.40;;;;;;;24.19;45.40;102646.09;5014138;28;20070;-59
2022/08/09 11:06:56;;;;;;;11.93;7.32;;;;;;;24.24;45.82;102668.50;5014033;28;20124;-60
2022/08/09 11:09:41;;;;;;;13.25;7.10;;;;;;;24.41;45.02;102667.41;5014029;28;20172;-60
2022/08/09 11:12:26;;;;;;;12.07;7.45;;;;;;;24.20;43.93;102673.19;5014321;28;20463;-60